Dinant, Belgium
Current Conditions -  °F | °C
As of 11:25 PM on Tuesday 21 Oct 2014 (Local Time) from EBFS Reporting Station
Scattered Clouds Scattered Clouds  
Wind Chill: 36°   Ceiling: Unl
Heat Index: 45°   Visibility: 6mi
Dew Point: 37°   Wind: 21mph
Humidity: 76%   Direction: 270°W
Pressure: 29.94"   Gusts: NA
Location:  50.26°N, 4.91°E
Report Text: EBFS 212125Z 27018KT 9999 FEW030 SCT220 07/03 Q1014 BLU
Loading
Personal Weather Stations






























Interactive Weather Map
Tropical Storm Tracking
New forecast layout! Learn more

10-Day Weather Forecast

Advertisements
Track Severe Weather on mobile